KTTD/TTD METAR and TAF weather

Enter ICAO airport designator
Station Type Date Time Source
KTTD METAR 2020/01/29 02:53 UTC NOAA

KTTD 290253Z 21007KT 10SM OVC040 11/07 A3022 RMK AO2 SLP231 T01060072 53033


Station Type Date Time Source
KTTD Decoded METAR 2020/01/29 02:53 UTC NOAA

PORTLAND-TROUTDALE AIRPORT, OR, United States (KTTD) 45-33N 122-25W 14M
Jan 28, 2020 - 09:53 PM EST / 2020.01.29 0253 UTC
Wind: from the SSW (210 degrees) at 8 MPH (7 KT):0
Visibility: 10 mile(s):0
Sky conditions: overcast
Temperature: 51.1 F (10.6 C)
Dew Point: 45.0 F (7.2 C)
Relative Humidity: 79%
Pressure (altimeter): 30.22 in. Hg (1023 hPa)
Pressure tendency: 0.10 inches (3.3 hPa) higher than three hours ago
ob: KTTD 290253Z 21007KT 10SM OVC040 11/07 A3022 RMK AO2 SLP231 T01060072 53033
cycle: 3

Station Type Date Time Source
KTTD TAF 2020/01/28 18:33 UTC NOAA

TAF KTTD 281731Z 2818/2918 19007KT P6SM -SHRA SCT020 BKN035 OVC050
FM282000 20007KT P6SM -SHRA SCT015 BKN025 OVC040
FM290300 20006KT P6SM SCT025 BKN035 OVC060
FM290900 09008KT P6SM SCT022 OVC040
FM291500 10010G18KT 6SM -RA BKN022 OVC040

Example: see airport list